Terminal Aerodrome Forecast
Issued by NWS

Home | Current Version | Previous Version | Text Only | Print | Product List | Glossary On
Versions: 1 2 3 4 5 6 7 8 9 10 11 12 13 14 15 16 17 18 19 20 21 22 23 24 25 26
485
FTAK31 PANC 141129
TAFAHO
TAF
PAHO 141129Z 1412/1512 01010KT P6SM -RA OVC035
     FM141800 06015KT P6SM -RA OVC035 WS020/14025KT
     FM142100 12015KT P6SM -SHRA BKN025
     FM150400 12008KT P6SM VCSH BKN035=

USA.gov is the U.S. government's official web portal to all federal, state and local government web resources and services.